Time;durP1;ratioP1;P1;durP2;ratioP2;P2;SDS_P1;SDS_P2;PMS_P1;PMS_P2;Temp;Humidity;BMP_temperature;BMP_pressure;BME280_temperature;BME280_humidity;BME280_pressure;Samples;Min_cycle;Max_cycle;Signal;HPM_P1;HPM_P2
2023/09/09 00:01:20;;;;;;;14.93;7.85;;;;;;;-145.69;55.35;51846.34;5116216;28;20224;-81
2023/09/09 00:03:46;;;;;;;12.57;7.90;;;;;;;-145.69;55.38;51866.16;5116176;28;20201;-79
2023/09/09 00:06:13;;;;;;;16.25;7.70;;;;;;;-145.69;55.27;51866.16;5116246;28;20637;-81
2023/09/09 00:08:43;;;;;;;15.43;8.05;;;;;;;-145.69;55.78;51854.28;5116126;28;20201;-80
2023/09/09 00:11:09;;;;;;;11.70;7.78;;;;;;;-145.69;55.69;51864.16;5116328;28;20198;-79
2023/09/09 00:13:36;;;;;;;13.65;7.38;;;;;;;-145.69;55.78;51850.31;5115603;28;20247;-80
2023/09/09 00:16:02;;;;;;;14.32;7.85;;;;;;;-145.69;55.69;51870.13;5115870;28;20190;-80
2023/09/09 00:18:29;;;;;;;15.23;8.65;;;;;;;-145.69;55.80;51838.44;5115963;28;20656;-80
2023/09/09 00:20:56;;;;;;;12.80;7.72;;;;;;;-145.69;56.12;51870.13;5115840;28;20204;-80
2023/09/09 00:23:22;;;;;;;13.60;7.80;;;;;;;-145.69;55.72;51862.19;5115566;28;20688;-81
2023/09/09 00:25:51;;;;;;;14.23;8.43;;;;;;;-145.69;55.26;51876.06;5115772;28;20209;-81
2023/09/09 00:28:17;;;;;;;13.45;8.30;;;;;;;-145.69;55.34;51862.19;5115686;28;20205;-80
2023/09/09 00:30:44;;;;;;;12.88;7.75;;;;;;;-145.69;55.41;51846.34;5115620;28;20785;-81
2023/09/09 00:33:10;;;;;;;14.55;7.80;;;;;;;-145.69;55.98;51836.44;5115242;28;20201;-80
2023/09/09 00:35:38;;;;;;;11.32;8.25;;;;;;;-145.69;55.91;51862.19;5115718;28;20193;-80
2023/09/09 00:38:05;;;;;;;10.85;7.57;;;;;;;-145.69;55.59;51878.03;5115520;28;20242;-80
2023/09/09 00:40:32;;;;;;;10.35;7.30;;;;;;;-145.69;55.89;51858.22;5115416;28;20209;-80
2023/09/09 00:42:59;;;;;;;11.95;7.00;;;;;;;-145.69;55.78;51840.41;5114840;28;20217;-81
2023/09/09 00:45:26;;;;;;;13.25;8.63;;;;;;;-145.69;55.97;51856.25;5115534;28;20229;-80
2023/09/09 00:47:53;;;;;;;11.27;8.15;;;;;;;-145.69;56.03;51856.25;5115429;28;20201;-79
2023/09/09 00:50:20;;;;;;;11.10;7.80;;;;;;;-145.69;55.95;51854.28;5115338;28;20645;-79
2023/09/09 00:52:47;;;;;;;12.63;7.90;;;;;;;-145.69;55.77;51880.00;5114225;28;20209;-80
2023/09/09 00:55:14;;;;;;;9.90;7.97;;;;;;;-145.69;56.37;51852.28;5114916;28;20193;-80
2023/09/09 00:57:41;;;;;;;11.63;7.22;;;;;;;-145.69;56.57;51852.28;5114912;28;20204;-79
2023/09/09 01:00:11;;;;;;;11.43;8.25;;;;;;;-145.69;55.91;51883.97;5115339;28;20206;-79
2023/09/09 01:02:38;;;;;;;13.02;8.05;;;;;;;-145.69;57.00;51854.28;5114928;28;20236;-79
2023/09/09 01:05:05;;;;;;;11.80;8.18;;;;;;;-145.69;56.31;51838.44;5114848;28;20194;-79
2023/09/09 01:07:42;;;;;;;12.00;7.88;;;;;;;-145.69;55.64;51854.28;5114770;28;20247;-79
2023/09/09 01:10:09;;;;;;;17.48;7.60;;;;;;;-145.69;57.18;51872.09;5114739;28;20201;-79
2023/09/09 01:12:35;;;;;;;12.70;8.20;;;;;;;-145.69;56.35;51838.44;5114624;28;20194;-79
2023/09/09 01:15:02;;;;;;;12.13;7.90;;;;;;;-145.69;57.28;51878.03;5114732;28;20205;-80
2023/09/09 01:17:31;;;;;;;10.85;7.53;;;;;;;-145.69;56.69;51880.00;5115034;28;20664;-80
2023/09/09 01:19:59;;;;;;;10.80;8.45;;;;;;;-145.69;57.15;51882.00;5114274;28;20193;-80
2023/09/09 01:22:33;;;;;;;11.52;8.55;;;;;;;-145.69;57.38;51868.13;5114376;28;20240;-80
2023/09/09 01:25:00;;;;;;;13.55;8.77;;;;;;;-145.69;58.46;51923.56;5113060;28;20492;-80
2023/09/09 01:27:26;;;;;;;14.23;8.63;;;;;;;-145.69;57.56;51878.03;5114611;28;20197;-79
2023/09/09 01:29:53;;;;;;;12.48;8.57;;;;;;;-145.69;57.25;51885.94;5114632;28;20664;-80
2023/09/09 01:32:19;;;;;;;12.93;8.93;;;;;;;-145.69;57.75;51895.84;5114324;28;20202;-79
2023/09/09 01:34:46;;;;;;;15.35;8.25;;;;;;;-145.69;57.93;51878.03;5114423;28;20279;-80
2023/09/09 01:37:12;;;;;;;15.32;9.50;;;;;;;-145.69;58.37;51901.78;5114443;28;20197;-80
2023/09/09 01:39:40;;;;;;;17.38;8.60;;;;;;;-145.69;57.98;51850.31;5114139;28;20219;-80
2023/09/09 01:42:07;;;;;;;11.70;8.70;;;;;;;-145.69;58.20;51893.88;5114464;28;20225;-80
2023/09/09 01:44:33;;;;;;;12.88;8.27;;;;;;;-145.69;58.36;51876.06;5114059;28;20236;-81
2023/09/09 01:46:59;;;;;;;12.15;8.65;;;;;;;-145.69;58.33;51897.84;5114261;28;20198;-80
2023/09/09 01:49:26;;;;;;;12.73;9.18;;;;;;;-145.69;59.18;51891.88;5113839;28;20198;-79
2023/09/09 01:51:53;;;;;;;11.07;8.05;;;;;;;-145.69;58.12;51893.88;5114172;28;20201;-80
2023/09/09 01:54:19;;;;;;;14.77;9.30;;;;;;;-145.69;58.47;51870.13;5113357;28;20205;-79
2023/09/09 01:56:47;;;;;;;16.92;9.32;;;;;;;-145.69;58.63;51870.13;5114087;28;20197;-80
2023/09/09 01:59:13;;;;;;;13.65;8.57;;;;;;;-145.69;58.68;51901.78;5108967;28;20190;-83
2023/09/09 02:01:40;;;;;;;14.68;8.75;;;;;;;-145.69;58.76;51889.91;5113880;28;20197;-80
2023/09/09 02:04:06;;;;;;;13.27;9.48;;;;;;;-145.69;58.78;51872.09;5113799;28;20200;-80
2023/09/09 02:06:33;;;;;;;14.77;9.43;;;;;;;-145.69;58.55;51913.69;5113861;28;20212;-80
2023/09/09 02:09:01;;;;;;;12.05;9.38;;;;;;;-145.69;59.16;51868.13;5113875;28;20284;-80
2023/09/09 02:11:27;;;;;;;14.95;10.00;;;;;;;-145.69;59.26;51905.75;5113999;28;20197;-80
2023/09/09 02:13:55;;;;;;;16.58;9.15;;;;;;;-145.69;58.98;51901.78;5113495;28;20279;-80
2023/09/09 02:16:21;;;;;;;18.10;10.25;;;;;;;-145.69;59.38;51882.00;5113799;28;20216;-80
2023/09/09 02:18:48;;;;;;;12.45;9.18;;;;;;;-145.69;59.27;51897.84;5113911;28;20198;-80
2023/09/09 02:21:14;;;;;;;14.63;9.48;;;;;;;-145.69;58.51;51891.88;5113387;28;20193;-79
2023/09/09 02:23:42;;;;;;;15.98;9.30;;;;;;;-145.69;58.97;51901.78;5113605;28;20225;-79
2023/09/09 02:26:09;;;;;;;13.65;9.00;;;;;;;-145.69;58.52;51880.00;5113219;28;20208;-79
2023/09/09 02:28:36;;;;;;;15.77;9.95;;;;;;;-145.69;58.28;51858.22;5113456;28;20193;-80
2023/09/09 02:31:03;;;;;;;13.65;9.55;;;;;;;-145.69;58.72;51913.69;5113198;28;20201;-80
2023/09/09 02:33:30;;;;;;;16.55;10.40;;;;;;;-145.69;59.03;51909.72;5113613;28;20209;-80
2023/09/09 02:35:59;;;;;;;12.35;9.30;;;;;;;-145.69;59.51;51878.03;5112746;28;20690;-80
2023/09/09 02:38:25;;;;;;;20.38;10.82;;;;;;;-145.69;60.49;51901.78;5113332;28;20201;-80
2023/09/09 02:40:52;;;;;;;14.70;9.93;;;;;;;-145.69;59.86;51907.72;5112452;28;20204;-80
2023/09/09 02:43:18;;;;;;;13.93;10.63;;;;;;;-145.69;60.77;51899.81;5113244;28;20260;-80
2023/09/09 02:45:45;;;;;;;15.25;10.55;;;;;;;-145.69;60.98;51885.94;5113268;28;20236;-80
2023/09/09 02:48:14;;;;;;;17.10;10.43;;;;;;;-145.69;60.34;51893.88;5113312;28;20292;-79
2023/09/09 02:50:40;;;;;;;16.20;10.40;;;;;;;-145.69;60.69;51939.41;5113368;28;20198;-81
2023/09/09 02:53:07;;;;;;;18.00;11.25;;;;;;;-145.69;60.31;51901.78;5113473;28;20202;-80
2023/09/09 02:55:33;;;;;;;17.17;10.55;;;;;;;-145.69;60.49;51878.03;5113199;28;20194;-81
2023/09/09 02:58:00;;;;;;;17.65;11.30;;;;;;;-145.69;61.14;51909.72;5112965;28;20196;-79
2023/09/09 03:00:26;;;;;;;15.20;10.35;;;;;;;-145.69;61.43;51909.72;5112908;28;20664;-80
2023/09/09 03:02:53;;;;;;;16.55;11.60;;;;;;;-145.69;60.91;51893.88;5112844;28;20240;-80
2023/09/09 03:05:20;;;;;;;17.00;11.35;;;;;;;-145.69;61.17;51882.00;5113280;28;20193;-80
2023/09/09 03:07:48;;;;;;;14.65;10.48;;;;;;;-145.69;60.67;51905.75;5113088;28;20560;-80
2023/09/09 03:10:14;;;;;;;19.23;12.02;;;;;;;-145.69;60.37;51880.00;5112916;28;20198;-80
2023/09/09 03:12:41;;;;;;;20.33;12.13;;;;;;;-145.69;61.08;51905.75;5112990;28;20656;-80
2023/09/09 03:15:09;;;;;;;20.33;11.73;;;;;;;-145.69;61.01;51935.47;5113236;28;20193;-80
2023/09/09 03:17:35;;;;;;;16.67;11.30;;;;;;;-145.69;60.58;51903.78;5113408;28;20205;-80
2023/09/09 03:20:05;;;;;;;18.88;10.88;;;;;;;-145.69;60.52;51923.56;5112859;28;20289;-81
2023/09/09 03:22:33;;;;;;;16.75;10.80;;;;;;;-145.69;61.08;51907.72;5112720;28;20274;-81
2023/09/09 03:24:59;;;;;;;19.98;11.68;;;;;;;-145.69;61.00;51882.00;5112842;28;20563;-80
2023/09/09 03:27:26;;;;;;;19.08;11.30;;;;;;;-145.69;61.37;51931.50;5113088;28;20205;-81
2023/09/09 03:29:52;;;;;;;17.10;11.80;;;;;;;-145.69;61.46;51931.50;5112845;28;20572;-81
2023/09/09 03:32:18;;;;;;;17.02;11.68;;;;;;;-145.69;61.61;51917.63;5112812;28;20666;-81
2023/09/09 03:34:45;;;;;;;19.60;11.93;;;;;;;-145.69;61.46;51880.00;5112535;28;20198;-82
2023/09/09 03:37:11;;;;;;;18.42;12.63;;;;;;;-145.69;61.37;51882.00;5113017;28;20254;-80
2023/09/09 03:39:39;;;;;;;16.95;11.00;;;;;;;-145.69;60.93;51903.78;5112689;28;20197;-80
2023/09/09 03:42:06;;;;;;;15.27;10.98;;;;;;;-145.69;61.51;51923.56;5113102;28;20233;-80
2023/09/09 03:44:32;;;;;;;16.65;11.15;;;;;;;-145.69;60.91;51915.66;5112434;28;20233;-80
2023/09/09 03:46:59;;;;;;;17.27;11.50;;;;;;;-145.69;61.54;51897.84;5112625;28;20202;-80
2023/09/09 03:49:25;;;;;;;17.95;12.15;;;;;;;-145.69;61.20;51905.75;5115076;28;20202;-80
2023/09/09 03:51:52;;;;;;;17.08;12.27;;;;;;;-145.69;61.23;51909.72;5116170;28;20198;-81
2023/09/09 03:54:19;;;;;;;16.83;12.20;;;;;;;-145.69;61.21;51907.72;5116626;28;20551;-81
2023/09/09 03:56:46;;;;;;;20.42;12.80;;;;;;;-145.69;61.59;51897.84;5116051;28;20599;-81
2023/09/09 03:59:13;;;;;;;17.80;12.55;;;;;;;-145.69;61.49;51921.59;5116257;28;20583;-80
2023/09/09 04:01:39;;;;;;;17.77;12.20;;;;;;;-145.69;61.08;51885.94;5116239;28;20209;-80
2023/09/09 04:04:06;;;;;;;19.88;12.85;;;;;;;-145.69;61.58;51905.75;5116448;28;20225;-81
2023/09/09 04:06:32;;;;;;;16.58;11.65;;;;;;;-145.69;61.09;51941.41;5115901;28;20671;-81
2023/09/09 04:08:59;;;;;;;18.40;12.73;;;;;;;-145.69;61.27;51941.41;5116451;28;20190;-80
2023/09/09 04:11:25;;;;;;;17.90;12.75;;;;;;;-145.69;nan;51905.75;5116151;28;20209;-80
2023/09/09 04:13:53;;;;;;;21.13;13.10;;;;;;;-145.69;61.24;51897.84;5116275;28;20202;-80
2023/09/09 04:16:20;;;;;;;19.60;13.20;;;;;;;-145.69;60.75;51901.78;5116298;28;20547;-80
2023/09/09 04:18:46;;;;;;;18.42;12.38;;;;;;;-145.69;60.34;51917.63;5115819;28;20201;-80
2023/09/09 04:21:13;;;;;;;22.65;12.68;;;;;;;-145.69;61.75;51901.78;5115807;28;20197;-81
2023/09/09 04:23:39;;;;;;;17.05;11.93;;;;;;;-145.69;60.58;51919.63;5115915;28;20233;-80
2023/09/09 04:26:06;;;;;;;19.40;12.55;;;;;;;-145.69;61.11;51909.72;5115923;28;20202;-81
2023/09/09 04:28:32;;;;;;;22.50;13.27;;;;;;;-145.69;60.56;51909.72;5115713;28;20198;-80
2023/09/09 04:31:00;;;;;;;24.92;12.95;;;;;;;-145.69;61.48;51917.63;5114417;28;20201;-81
2023/09/09 04:33:26;;;;;;;20.98;14.45;;;;;;;-145.69;61.69;51895.84;5113873;28;20198;-80
2023/09/09 04:35:53;;;;;;;18.30;13.35;;;;;;;-145.69;61.29;51945.34;5115103;28;20225;-80
2023/09/09 04:38:22;;;;;;;18.70;12.88;;;;;;;-145.69;61.57;51933.47;5115309;28;20224;-80
2023/09/09 04:40:49;;;;;;;20.05;13.63;;;;;;;-145.69;61.23;51925.56;5115311;28;20598;-80
2023/09/09 04:43:15;;;;;;;18.80;12.48;;;;;;;-145.69;60.42;51949.31;5115431;28;20225;-80
2023/09/09 04:45:42;;;;;;;18.58;13.27;;;;;;;-145.69;61.54;51935.47;5114880;28;20308;-80
2023/09/09 04:48:10;;;;;;;20.33;12.75;;;;;;;-145.69;62.48;51935.47;5115451;28;20209;-80
2023/09/09 04:50:36;;;;;;;18.17;12.80;;;;;;;-145.69;63.10;51891.88;5115425;28;20640;-80
2023/09/09 04:53:04;;;;;;;15.65;11.52;;;;;;;-145.69;62.78;51937.44;5115342;28;20656;-81
2023/09/09 04:55:31;;;;;;;16.77;12.38;;;;;;;-145.69;63.49;51969.13;5114996;28;20668;-81
2023/09/09 04:57:58;;;;;;;18.83;11.52;;;;;;;-145.69;63.21;51949.31;5115211;28;20197;-80
2023/09/09 05:00:24;;;;;;;19.30;12.50;;;;;;;-145.69;63.17;51945.34;5114479;28;20197;-80
2023/09/09 05:02:51;;;;;;;17.80;11.95;;;;;;;-145.69;63.54;51935.47;5114911;28;20213;-80
2023/09/09 05:05:19;;;;;;;16.75;13.00;;;;;;;-145.69;63.35;51945.34;5114704;28;20204;-80
2023/09/09 05:07:45;;;;;;;14.90;11.40;;;;;;;-145.69;63.03;51933.47;5114916;28;20198;-80
2023/09/09 05:10:12;;;;;;;15.05;10.77;;;;;;;-145.69;63.36;51923.56;5114991;28;20194;-80
2023/09/09 05:12:38;;;;;;;18.75;13.10;;;;;;;-145.69;63.51;51957.25;5114993;28;20233;-80
2023/09/09 05:15:06;;;;;;;17.27;12.70;;;;;;;-145.69;62.79;51949.31;5114896;28;20193;-80
2023/09/09 05:17:33;;;;;;;17.00;12.43;;;;;;;-145.69;63.05;51957.25;5115057;28;20198;-80
2023/09/09 05:19:59;;;;;;;17.40;12.50;;;;;;;-145.69;63.20;51941.41;5114718;28;20208;-81
2023/09/09 05:22:27;;;;;;;16.92;11.52;;;;;;;-145.69;63.04;51973.06;5114925;28;20201;-80
2023/09/09 05:24:53;;;;;;;17.42;12.05;;;;;;;-145.69;63.28;51933.47;5114668;28;20228;-81
2023/09/09 05:27:20;;;;;;;16.98;12.55;;;;;;;-145.69;64.04;51937.44;5114797;28;20208;-80
2023/09/09 05:29:47;;;;;;;18.05;12.85;;;;;;;-145.69;63.47;51931.50;5114647;28;20201;-81
2023/09/09 05:32:14;;;;;;;16.80;11.98;;;;;;;-145.69;63.91;51949.31;5113936;28;20186;-81
2023/09/09 05:34:40;;;;;;;21.70;13.23;;;;;;;-145.69;63.68;51953.28;5114414;28;20551;-80
2023/09/09 05:37:06;;;;;;;18.38;13.48;;;;;;;-145.69;64.31;51925.56;5114231;28;20200;-81
2023/09/09 05:39:34;;;;;;;18.27;13.07;;;;;;;-145.69;63.83;51961.19;5114581;28;20290;-81
2023/09/09 05:42:01;;;;;;;16.88;12.70;;;;;;;-145.69;64.28;51953.28;5114387;28;20201;-81
2023/09/09 05:44:27;;;;;;;16.60;11.75;;;;;;;-145.69;64.24;51919.63;5113790;28;20228;-81
2023/09/09 05:46:54;;;;;;;15.95;12.27;;;;;;;-145.69;63.57;51917.63;5114371;28;20202;-81
2023/09/09 05:49:21;;;;;;;16.65;12.85;;;;;;;-145.69;63.89;51945.34;5114408;28;20201;-81
2023/09/09 05:51:47;;;;;;;17.30;12.40;;;;;;;-145.69;64.35;51923.56;5113533;28;20196;-81
2023/09/09 05:54:14;;;;;;;22.70;14.32;;;;;;;-145.69;64.05;51969.13;5114289;28;20201;-82
2023/09/09 05:56:41;;;;;;;17.63;13.05;;;;;;;-145.69;64.00;51915.66;5113931;28;20197;-81
2023/09/09 05:59:08;;;;;;;22.08;14.95;;;;;;;-145.69;64.69;51921.59;5113992;28;20556;-82
2023/09/09 06:01:35;;;;;;;21.08;14.70;;;;;;;-145.69;64.89;51951.28;5113428;28;20663;-81
2023/09/09 06:04:01;;;;;;;26.20;15.52;;;;;;;-145.69;65.16;51911.69;5114039;28;20236;-80
2023/09/09 06:06:28;;;;;;;22.90;15.68;;;;;;;-145.69;65.11;51945.34;5095506;28;20258;-80
2023/09/09 06:08:54;;;;;;;24.83;14.63;;;;;;;-145.69;64.97;51915.66;5113286;28;20197;-81
2023/09/09 06:11:21;;;;;;;21.98;14.93;;;;;;;-145.69;64.97;51925.56;5113039;28;20194;-81
2023/09/09 06:13:49;;;;;;;23.05;15.60;;;;;;;-145.69;64.66;51901.78;5113381;28;20206;-82
2023/09/09 06:16:15;;;;;;;25.25;15.25;;;;;;;-145.69;64.49;51901.78;5114060;28;20201;-81
2023/09/09 06:18:42;;;;;;;24.48;15.20;;;;;;;-145.69;65.19;51887.94;5113670;28;20682;-81
2023/09/09 06:21:08;;;;;;;22.83;14.25;;;;;;;-145.69;65.11;51927.53;5114063;28;20529;-81
2023/09/09 06:23:36;;;;;;;22.20;14.82;;;;;;;-145.69;64.99;51919.63;5113324;28;20224;-81
2023/09/09 06:26:02;;;;;;;18.98;14.20;;;;;;;-145.69;65.03;51897.84;5113908;28;20529;-82
2023/09/09 06:28:29;;;;;;;18.75;13.40;;;;;;;-145.69;64.24;51941.41;5113545;28;20202;-81
2023/09/09 06:30:56;;;;;;;18.88;13.40;;;;;;;-145.69;64.46;51927.53;5112938;28;20201;-81
2023/09/09 06:33:23;;;;;;;18.52;12.85;;;;;;;-145.69;65.13;51905.75;5113004;28;20201;-81
2023/09/09 06:35:50;;;;;;;17.42;13.35;;;;;;;-145.69;65.31;51949.31;5113112;28;20209;-82
2023/09/09 06:38:16;;;;;;;18.85;13.73;;;;;;;-145.69;64.44;51901.78;5112627;28;20205;-81
2023/09/09 06:40:44;;;;;;;19.02;14.10;;;;;;;-145.69;64.46;51927.53;5113343;28;20197;-81
2023/09/09 06:43:10;;;;;;;25.13;13.50;;;;;;;-145.69;63.94;51915.66;5113267;28;20205;-81
2023/09/09 06:45:37;;;;;;;16.52;12.73;;;;;;;-145.69;63.64;51891.88;5113258;28;20252;-81
2023/09/09 06:48:05;;;;;;;16.80;12.60;;;;;;;-145.69;63.80;51866.16;5113060;28;20189;-81
2023/09/09 06:50:32;;;;;;;15.95;11.70;;;;;;;-145.69;64.26;51874.06;5113351;28;20194;-81
2023/09/09 06:52:58;;;;;;;17.92;12.55;;;;;;;-145.69;63.94;51901.78;5112776;28;20208;-81
2023/09/09 06:55:25;;;;;;;17.10;11.60;;;;;;;-145.69;64.28;51880.00;5113295;28;20209;-81
2023/09/09 06:57:51;;;;;;;21.30;12.32;;;;;;;-145.69;64.24;51882.00;5112802;28;20548;-80
2023/09/09 07:00:17;;;;;;;18.08;11.68;;;;;;;-145.69;63.84;51887.94;5112928;28;20200;-80
2023/09/09 07:02:44;;;;;;;17.80;12.98;;;;;;;-145.69;64.26;51885.94;5110376;28;20541;-80
2023/09/09 07:05:16;;;;;;;17.10;12.10;;;;;;;-145.69;63.72;51897.84;5113140;28;20225;-81
2023/09/09 07:07:43;;;;;;;15.40;12.25;;;;;;;-145.69;63.83;51866.16;5113138;28;20720;-81
2023/09/09 07:10:10;;;;;;;15.90;11.57;;;;;;;-145.69;64.01;51917.63;5113097;28;20652;-81
2023/09/09 07:12:36;;;;;;;18.15;11.85;;;;;;;-145.69;64.30;51919.63;5109907;28;20208;-79
2023/09/09 07:15:03;;;;;;;15.98;12.65;;;;;;;-145.69;63.89;51874.06;5092923;28;20213;-79
2023/09/09 07:17:30;;;;;;;16.02;12.07;;;;;;;-145.69;63.79;51862.19;5093000;28;20220;-81
2023/09/09 07:19:56;;;;;;;15.68;11.90;;;;;;;-145.69;63.82;51885.94;5112954;28;20677;-82
2023/09/09 07:22:24;;;;;;;15.25;12.20;;;;;;;-145.69;63.89;51885.94;5113515;28;20197;-81
2023/09/09 07:24:51;;;;;;;15.38;11.25;;;;;;;-145.69;63.90;51858.22;5116444;28;20228;-81
2023/09/09 07:27:17;;;;;;;15.88;11.68;;;;;;;-145.69;63.87;51874.06;5116928;28;20200;-82
2023/09/09 07:29:43;;;;;;;15.50;11.65;;;;;;;-145.69;64.21;51889.91;5116814;28;20196;-81
2023/09/09 07:32:10;;;;;;;13.23;10.88;;;;;;;-145.69;63.73;51893.88;5116680;28;20667;-82
2023/09/09 07:34:36;;;;;;;15.13;11.23;;;;;;;-145.69;63.94;51866.16;5116485;28;20205;-81
2023/09/09 07:37:03;;;;;;;14.82;10.15;;;;;;;-145.69;63.39;51854.28;5116908;28;20209;-81
2023/09/09 07:39:31;;;;;;;13.85;10.63;;;;;;;-145.69;62.89;51860.22;5116418;28;20655;-81
2023/09/09 07:41:57;;;;;;;16.40;10.32;;;;;;;-145.69;62.15;51860.22;5117178;28;20201;-82
2023/09/09 07:44:24;;;;;;;12.45;9.23;;;;;;;-145.69;62.46;51848.34;5116776;28;20231;-82
2023/09/09 07:46:50;;;;;;;15.15;9.88;;;;;;;-145.69;62.42;51889.91;5116603;28;20197;-81
2023/09/09 07:49:17;;;;;;;17.48;8.75;;;;;;;-145.69;61.18;51858.22;5115822;28;20375;-81
2023/09/09 07:51:45;;;;;;;10.93;8.73;;;;;;;-145.69;61.11;51856.25;5116071;28;20198;-81
2023/09/09 07:54:11;;;;;;;12.50;9.07;;;;;;;-145.69;60.44;51862.19;5116711;28;20204;-82
2023/09/09 07:56:42;;;;;;;14.43;8.23;;;;;;;-145.69;59.21;51834.47;5116345;28;20197;-81
2023/09/09 07:59:08;;;;;;;14.27;8.85;;;;;;;-145.69;58.91;51880.00;5116211;28;20289;-80
2023/09/09 08:01:34;;;;;;;9.93;7.65;;;;;;;-145.69;57.83;51856.25;5116408;28;20648;-80
2023/09/09 08:04:01;;;;;;;15.63;7.90;;;;;;;-145.69;56.69;51834.47;5115528;28;20702;-80
2023/09/09 08:06:28;;;;;;;10.52;7.20;;;;;;;-145.69;55.73;51822.59;5115960;28;20655;-80
2023/09/09 08:08:54;;;;;;;12.35;7.10;;;;;;;-145.69;54.82;51844.38;5115947;28;20189;-80
2023/09/09 08:11:20;;;;;;;10.95;7.60;;;;;;;-145.69;54.00;51846.34;5116221;28;20198;-80
2023/09/09 08:13:48;;;;;;;10.50;7.00;;;;;;;-145.69;53.71;51832.50;5115569;28;20533;-80
2023/09/09 08:16:15;;;;;;;9.48;6.72;;;;;;;-145.69;52.85;51842.38;5116187;28;20236;-80
2023/09/09 08:18:41;;;;;;;10.30;7.55;;;;;;;-145.69;52.46;51832.50;5115192;28;20192;-80
2023/09/09 08:21:10;;;;;;;9.82;6.82;;;;;;;-145.69;52.49;51794.88;5115649;28;20207;-80
2023/09/09 08:23:36;;;;;;;8.95;6.30;;;;;;;-145.69;51.98;51808.72;5115676;28;20201;-80
2023/09/09 08:26:03;;;;;;;10.07;6.50;;;;;;;-145.69;50.92;51812.69;5115441;28;20656;-80
2023/09/09 08:28:29;;;;;;;10.55;7.03;;;;;;;-145.69;50.52;51822.59;5115844;28;20533;-80
2023/09/09 08:30:59;;;;;;;8.80;6.50;;;;;;;-145.69;49.55;51798.81;5115778;28;20707;-80
2023/09/09 08:33:25;;;;;;;9.63;6.03;;;;;;;-145.69;49.86;51788.94;5115265;28;20197;-82
2023/09/09 08:35:52;;;;;;;10.13;6.32;;;;;;;-145.69;48.77;51798.81;5114802;28;20198;-81
2023/09/09 08:38:19;;;;;;;10.00;6.35;;;;;;;-145.69;48.59;51784.97;5114921;28;20193;-81
2023/09/09 08:40:50;;;;;;;8.77;6.43;;;;;;;-145.69;48.38;51775.06;5115439;28;20197;-81
2023/09/09 08:43:20;;;;;;;11.73;6.18;;;;;;;-145.69;48.12;51747.34;5114806;28;20189;-81
2023/09/09 08:45:58;;;;;;;7.95;6.35;;;;;;;-145.69;48.17;51798.81;5114907;28;20237;-82
2023/09/09 08:48:28;;;;;;;7.38;6.07;;;;;;;-145.69;48.05;51783.00;5115339;28;20185;-81
2023/09/09 08:50:59;;;;;;;261.33;54.90;;;;;;;-145.69;48.12;51767.16;5115190;28;20198;-80
2023/09/09 08:53:28;;;;;;;59.80;19.05;;;;;;;-145.69;47.87;51769.13;5115448;28;20258;-80
2023/09/09 08:55:56;;;;;;;15.82;7.18;;;;;;;-145.69;46.58;51765.16;5115375;28;20737;-82
2023/09/09 08:58:23;;;;;;;28.15;10.90;;;;;;;-145.69;46.82;51804.78;5105307;28;20194;-83
2023/09/09 09:00:50;;;;;;;15.20;6.97;;;;;;;-145.69;46.25;51779.03;5100637;28;20200;-80
2023/09/09 09:03:18;;;;;;;10.25;6.40;;;;;;;-145.69;44.93;51792.88;5114421;28;20208;-80
2023/09/09 09:05:47;;;;;;;11.95;7.18;;;;;;;-145.69;44.58;51788.94;5114810;28;20704;-80
2023/09/09 09:08:14;;;;;;;10.65;6.40;;;;;;;-145.69;44.81;51783.00;5115047;28;20664;-81
2023/09/09 09:10:40;;;;;;;10.18;5.82;;;;;;;-145.69;44.34;51775.06;5115170;28;20541;-82
2023/09/09 09:13:07;;;;;;;10.18;5.55;;;;;;;-145.69;44.35;51771.09;5114750;28;20205;-81
2023/09/09 09:15:36;;;;;;;8.13;6.30;;;;;;;-145.69;44.75;51765.16;5114826;28;20198;-79
2023/09/09 09:18:02;;;;;;;9.82;6.82;;;;;;;-145.69;44.55;51796.84;5115527;28;20189;-80
2023/09/09 09:20:31;;;;;;;17.90;8.15;;;;;;;-145.69;44.88;51761.22;5115208;28;20194;-80
2023/09/09 09:23:01;;;;;;;10.40;7.57;;;;;;;-145.69;44.63;51779.03;5114514;28;20193;-81
2023/09/09 09:25:28;;;;;;;12.25;7.30;;;;;;;-145.69;44.12;51749.31;5114364;28;20217;-81
2023/09/09 09:27:56;;;;;;;12.65;7.20;;;;;;;-145.69;44.56;51753.28;5115411;28;20201;-81
2023/09/09 09:30:24;;;;;;;7.82;6.65;;;;;;;-145.69;44.53;51757.25;5116427;28;20230;-81
2023/09/09 09:32:52;;;;;;;12.88;7.07;;;;;;;-145.69;44.16;51751.31;5117287;28;20202;-81
2023/09/09 09:35:29;;;;;;;12.02;6.65;;;;;;;-145.69;43.79;51759.22;5117164;28;20197;-81
2023/09/09 09:37:57;;;;;;;8.45;6.07;;;;;;;-145.69;43.59;51763.19;5115197;28;20201;-81
2023/09/09 09:40:25;;;;;;;11.13;6.30;;;;;;;-145.69;43.61;51763.19;5115595;28;20200;-82
2023/09/09 09:42:51;;;;;;;9.57;6.43;;;;;;;-145.69;43.40;51779.03;5118392;28;20296;-81
2023/09/09 09:45:18;;;;;;;8.65;5.82;;;;;;;-145.69;42.66;51771.09;5116062;28;20252;-81
2023/09/09 09:47:47;;;;;;;9.10;6.00;;;;;;;-145.69;41.95;51751.31;5116175;27;20193;-82
2023/09/09 09:50:19;;;;;;;13.35;5.90;;;;;;;-145.69;41.92;51743.38;5115139;28;20798;-81
2023/09/09 09:52:49;;;;;;;9.13;5.68;;;;;;;-145.69;41.67;51747.34;5114348;28;20197;-81
2023/09/09 09:55:19;;;;;;;8.10;5.30;;;;;;;-145.69;41.49;51731.50;5112851;28;20594;-80
2023/09/09 09:57:47;;;;;;;14.32;6.43;;;;;;;-145.69;41.70;51751.31;5114210;28;20201;-80
2023/09/09 10:00:15;;;;;;;7.65;5.80;;;;;;;-145.69;41.82;51713.69;5113901;28;20669;-81
2023/09/09 10:02:42;;;;;;;10.90;5.80;;;;;;;-145.69;41.08;51739.44;5114458;28;20251;-80
2023/09/09 10:05:13;;;;;;;6.18;5.28;;;;;;;-145.69;41.76;51727.53;5107853;28;20224;-80
2023/09/09 10:07:43;;;;;;;11.13;5.95;;;;;;;-145.69;41.36;51739.44;5113951;28;20208;-81
2023/09/09 10:10:13;;;;;;;8.25;5.50;;;;;;;-145.69;40.80;51711.72;5114043;28;20217;-80
2023/09/09 10:12:46;;;;;;;8.32;5.50;;;;;;;-145.69;40.14;51703.78;5113447;28;20188;-81
2023/09/09 10:15:14;;;;;;;8.57;5.25;;;;;;;-145.69;39.44;51715.66;5093892;28;20201;-80
2023/09/09 10:17:43;;;;;;;8.07;5.68;;;;;;;-145.69;39.46;51703.78;5110409;28;20269;-82
2023/09/09 10:20:12;;;;;;;9.95;5.03;;;;;;;-145.69;38.38;51725.56;5113777;28;20198;-79
2023/09/09 10:22:41;;;;;;;6.60;4.75;;;;;;;-145.69;37.11;51691.91;5113904;28;20197;-81
2023/09/09 10:25:10;;;;;;;6.82;4.90;;;;;;;-145.69;37.31;51715.66;5113749;28;20249;-82
2023/09/09 10:27:38;;;;;;;10.52;5.57;;;;;;;-145.69;37.59;51697.84;5113701;28;20659;-80
2023/09/09 10:30:08;;;;;;;7.55;5.80;;;;;;;-145.69;37.77;51697.84;5113735;28;20198;-81
2023/09/09 10:32:38;;;;;;;8.02;4.55;;;;;;;-145.69;37.30;51691.91;5113327;28;20224;-81
2023/09/09 10:35:06;;;;;;;10.60;5.20;;;;;;;-145.69;37.01;51715.66;5112941;28;20597;-82
2023/09/09 10:37:35;;;;;;;9.50;5.28;;;;;;;-145.69;37.96;51691.91;5112831;28;20193;-81
2023/09/09 10:40:02;;;;;;;8.25;5.63;;;;;;;-145.69;38.86;51691.91;5113403;28;20189;-81
2023/09/09 10:42:30;;;;;;;8.90;5.15;;;;;;;-145.69;38.21;51701.81;5113497;28;20197;-81
2023/09/09 10:44:58;;;;;;;9.48;5.68;;;;;;;-145.69;37.47;51703.78;5113498;28;20229;-82
2023/09/09 10:47:25;;;;;;;6.95;5.05;;;;;;;-145.69;36.91;51727.53;5113543;28;20205;-81
2023/09/09 10:50:03;;;;;;;8.38;5.18;;;;;;;-145.69;36.18;51695.88;5113862;28;20208;-81
2023/09/09 10:52:33;;;;;;;8.98;5.03;;;;;;;-145.69;37.82;51691.91;5113320;28;20200;-80
2023/09/09 10:55:11;;;;;;;8.50;4.65;;;;;;;-145.69;36.73;51711.72;5113797;28;20200;-81
2023/09/09 10:57:38;;;;;;;7.53;4.20;;;;;;;-145.69;37.19;51709.72;5113051;28;20224;-79
2023/09/09 11:00:06;;;;;;;7.88;4.63;;;;;;;-145.69;36.91;51695.88;5113151;28;20193;-80
2023/09/09 11:02:45;;;;;;;7.00;4.72;;;;;;;-145.69;36.27;51683.97;5096468;28;20190;-80
2023/09/09 11:05:15;;;;;;;6.22;4.57;;;;;;;-145.69;36.48;51697.84;5111103;28;20236;-80
2023/09/09 11:07:43;;;;;;;9.25;4.30;;;;;;;-145.69;37.09;51707.75;5113065;28;20198;-81